Time;durP1;ratioP1;P1;durP2;ratioP2;P2;SDS_P1;SDS_P2;PMS_P1;PMS_P2;Temp;Humidity;BMP_temperature;BMP_pressure;BME280_temperature;BME280_humidity;BME280_pressure;Samples;Min_cycle;Max_cycle;Signal;HPM_P1;HPM_P2
2023/03/05 00:02:08;;;;;;;29.30;11.10;;;0.70;1.00;;;3.34;100.00;95813.97;5026323;28;20622;-64
2023/03/05 00:04:35;;;;;;;22.83;11.03;;;0.70;1.00;;;3.40;100.00;95817.59;5027990;28;20215;-64
2023/03/05 00:07:02;;;;;;;19.40;9.30;;;0.70;1.00;;;3.39;100.00;95815.94;5023439;28;20608;-64
2023/03/05 00:09:29;;;;;;;16.60;7.97;;;0.70;1.00;;;3.49;100.00;95811.88;5025630;28;20214;-64
2023/03/05 00:11:56;;;;;;;18.03;8.27;;;0.70;1.00;;;3.44;100.00;95816.97;5027253;28;20275;-64
2023/03/05 00:14:24;;;;;;;18.67;9.53;;;0.70;1.00;;;3.47;100.00;95810.47;5033244;28;20272;-64
2023/03/05 00:16:51;;;;;;;20.77;9.97;;;0.70;1.00;;;3.48;100.00;95810.25;5025284;28;20207;-64
2023/03/05 00:19:17;;;;;;;21.30;10.30;;;0.70;1.00;;;3.45;100.00;95815.13;5030759;28;20218;-64
2023/03/05 00:21:44;;;;;;;18.53;9.10;;;0.70;1.00;;;3.49;100.00;95817.13;5030053;28;20268;-65
2023/03/05 00:24:14;;;;;;;16.43;7.97;;;0.60;1.00;;;3.46;100.00;95814.13;5027157;28;20774;-64
2023/03/05 00:26:41;;;;;;;15.90;7.63;;;0.70;1.00;;;3.44;100.00;95810.88;5026878;28;20856;-64
2023/03/05 00:29:09;;;;;;;16.87;8.40;;;0.60;1.00;;;3.46;100.00;95804.38;5028735;28;20210;-64
2023/03/05 00:31:38;;;;;;;16.37;8.10;;;0.70;1.00;;;3.42;100.00;95808.47;5028490;28;20253;-64
2023/03/05 00:34:08;;;;;;;17.37;8.97;;;0.70;1.00;;;3.47;100.00;95803.38;5023514;28;20252;-64
2023/03/05 00:36:35;;;;;;;21.23;9.63;;;0.70;1.00;;;3.47;100.00;95803.38;5030337;28;20221;-64
2023/03/05 00:39:02;;;;;;;24.37;10.23;;;0.70;1.00;;;3.42;100.00;95805.00;5028115;28;20301;-64
2023/03/05 00:41:29;;;;;;;20.03;9.90;;;0.70;1.00;;;3.45;100.00;95800.13;5028680;28;20198;-64
2023/03/05 00:43:56;;;;;;;18.53;8.97;;;0.70;1.00;;;3.39;100.00;95798.31;5028536;28;20219;-64
2023/03/05 00:46:23;;;;;;;18.30;9.27;;;0.70;1.00;;;3.49;100.00;95796.03;5026480;28;20230;-64
2023/03/05 00:48:51;;;;;;;17.03;8.80;;;0.70;1.00;;;3.47;100.00;95795.47;5028932;28;20553;-64
2023/03/05 00:51:18;;;;;;;18.60;9.37;;;0.70;1.00;;;3.42;100.00;95797.09;5026606;28;20216;-65
2023/03/05 00:53:44;;;;;;;16.00;7.50;;;0.70;1.00;;;3.27;100.00;95791.28;5029436;28;20214;-64
2023/03/05 00:56:11;;;;;;;16.23;8.87;;;0.70;1.00;;;3.24;100.00;95787.25;5029676;28;20294;-64
2023/03/05 00:58:39;;;;;;;17.17;8.53;;;0.70;1.00;;;3.38;100.00;95788.00;5029151;28;20211;-64
2023/03/05 01:01:06;;;;;;;17.17;8.87;;;0.70;1.00;;;3.48;100.00;95783.88;5027178;28;20210;-65
2023/03/05 01:03:34;;;;;;;18.33;8.70;;;0.70;1.00;;;3.49;100.00;95787.31;5030439;28;20219;-64
2023/03/05 01:06:06;;;;;;;20.17;7.73;;;0.70;1.00;;;3.44;100.00;95779.22;5027072;28;20286;-64
2023/03/05 01:08:33;;;;;;;17.80;8.43;;;0.80;1.00;;;3.50;100.00;95776.56;5024264;28;20265;-64
2023/03/05 01:11:01;;;;;;;14.03;7.20;;;0.80;1.00;;;3.43;100.00;95775.81;5026638;28;20218;-65
2023/03/05 01:13:28;;;;;;;19.63;7.90;;;0.80;1.00;;;3.02;100.00;95775.38;5027559;28;20214;-64
2023/03/05 01:15:55;;;;;;;19.37;8.27;;;0.80;1.00;;;3.03;100.00;95763.00;5027445;28;20660;-65
2023/03/05 01:18:22;;;;;;;22.90;8.93;;;0.80;1.00;;;3.02;100.00;95762.22;5028406;28;20261;-64
2023/03/05 01:20:49;;;;;;;18.47;8.77;;;0.80;1.00;;;2.91;100.00;95762.88;5027575;28;20242;-64
2023/03/05 01:23:17;;;;;;;17.40;8.33;;;0.70;1.00;;;2.98;100.00;95754.94;5026857;28;20652;-64
2023/03/05 01:25:44;;;;;;;18.47;7.70;;;0.80;1.00;;;3.16;100.00;95755.84;5026689;28;20227;-65
2023/03/05 01:28:11;;;;;;;13.07;6.43;;;0.70;1.00;;;2.95;100.00;95745.59;5030841;28;20278;-64
2023/03/05 01:30:38;;;;;;;16.50;6.77;;;0.70;1.00;;;2.89;100.00;95754.34;5027457;28;20215;-64
2023/03/05 01:33:05;;;;;;;12.17;6.53;;;0.80;1.00;;;2.91;100.00;95757.59;5027105;28;20992;-65
2023/03/05 01:35:32;;;;;;;15.40;6.77;;;0.70;1.00;;;2.88;100.00;95742.22;5027113;28;20270;-65
2023/03/05 01:37:58;;;;;;;14.23;6.93;;;0.70;1.00;;;2.88;100.00;95752.75;5026363;28;20215;-64
2023/03/05 01:40:31;;;;;;;16.67;6.80;;;0.60;1.00;;;2.89;100.00;95750.94;5020067;28;20268;-64
2023/03/05 01:43:01;;;;;;;13.47;6.70;;;0.50;1.00;;;2.83;100.00;95749.94;5025726;28;20264;-64
2023/03/05 01:45:31;;;;;;;14.07;5.90;;;0.60;1.00;;;2.83;100.00;95741.19;5022165;28;20681;-64
2023/03/05 01:47:58;;;;;;;13.20;6.00;;;0.60;1.00;;;2.88;100.00;95736.94;5026862;28;20721;-65
2023/03/05 01:50:26;;;;;;;16.60;6.30;;;0.70;1.00;;;2.95;100.00;95739.56;5031889;28;20212;-64
2023/03/05 01:52:59;;;;;;;14.57;6.47;;;0.70;1.00;;;2.99;100.00;95740.72;5031087;28;20258;-64
2023/03/05 01:55:31;;;;;;;12.17;5.87;;;0.70;1.00;;;2.96;100.00;95726.16;5030827;28;20202;-64
2023/03/05 01:58:03;;;;;;;11.30;6.33;;;0.70;1.00;;;2.89;100.00;95725.38;5035743;28;20294;-64
2023/03/05 02:00:37;;;;;;;17.93;6.97;;;0.70;1.00;;;2.96;100.00;95715.63;5030885;28;20214;-64
2023/03/05 02:03:07;;;;;;;17.10;6.57;;;0.70;1.00;;;2.93;100.00;95713.41;5028986;28;20270;-64
2023/03/05 02:05:37;;;;;;;18.17;6.87;;;0.80;1.00;;;2.94;100.00;95722.09;5030758;28;20236;-64
2023/03/05 02:08:07;;;;;;;17.43;6.93;;;0.70;1.00;;;2.86;100.00;95712.66;5032190;28;20253;-64
2023/03/05 02:10:38;;;;;;;13.50;6.37;;;0.80;1.00;;;3.00;100.00;95705.50;5030565;28;20270;-64
2023/03/05 02:13:08;;;;;;;16.93;7.13;;;0.80;1.00;;;3.05;100.00;95708.31;5033261;28;20210;-64
2023/03/05 02:15:36;;;;;;;11.87;6.43;;;0.80;1.00;;;2.94;100.00;95704.50;5031219;28;20221;-64
2023/03/05 02:18:04;;;;;;;15.73;6.80;;;0.80;1.00;;;3.03;100.00;95690.06;5032223;28;20637;-64
2023/03/05 02:20:45;;;;;;;17.80;7.43;;;0.80;1.00;;;2.97;100.00;95698.81;5031277;28;20618;-64
2023/03/05 02:23:13;;;;;;;16.10;7.33;;;0.80;1.00;;;2.91;100.00;95698.84;5035752;28;20773;-65
2023/03/05 02:25:40;;;;;;;13.27;5.93;;;0.80;1.00;;;2.92;100.00;95696.00;5029233;28;20230;-64
2023/03/05 02:28:15;;;;;;;11.53;6.17;;;0.70;1.00;;;2.93;100.00;95691.53;5028626;28;20630;-64
2023/03/05 02:30:41;;;;;;;10.40;5.67;;;0.70;1.00;;;2.81;100.00;95694.03;5030375;28;20209;-64
2023/03/05 02:33:08;;;;;;;12.43;6.60;;;0.70;1.00;;;2.90;100.00;95690.13;5032076;28;20241;-64
2023/03/05 02:35:35;;;;;;;9.67;5.03;;;0.60;1.00;;;2.94;100.00;95696.59;5029374;28;20210;-64
2023/03/05 02:38:03;;;;;;;12.80;5.63;;;0.70;1.00;;;2.89;100.00;95691.16;5033030;28;20203;-64
2023/03/05 02:40:31;;;;;;;13.33;5.97;;;0.70;1.00;;;2.87;100.00;95685.28;5027287;28;20272;-64
2023/03/05 02:42:58;;;;;;;13.70;6.00;;;0.60;1.00;;;2.88;100.00;95688.72;5034768;28;20222;-64
2023/03/05 02:45:25;;;;;;;15.47;6.03;;;0.60;1.00;;;2.86;100.00;95674.97;5029307;28;20245;-64
2023/03/05 02:47:51;;;;;;;16.57;6.73;;;0.70;1.00;;;2.79;100.00;95682.88;5032976;28;20287;-65
2023/03/05 02:50:18;;;;;;;17.53;6.97;;;0.60;1.00;;;2.77;100.00;95679.66;5025797;28;20250;-64
2023/03/05 02:52:45;;;;;;;13.20;5.27;;;0.70;1.00;;;2.79;100.00;95674.97;5027285;28;20202;-64
2023/03/05 02:55:12;;;;;;;12.17;6.03;;;0.70;1.00;;;2.84;100.00;95680.44;5029254;28;20214;-65
2023/03/05 02:57:40;;;;;;;15.40;7.10;;;0.70;1.00;;;2.83;100.00;95668.28;5032171;28;20295;-64
2023/03/05 03:00:09;;;;;;;11.20;5.13;;;0.70;1.00;;;2.87;100.00;95666.84;5030112;28;20244;-65
2023/03/05 03:02:35;;;;;;;10.93;5.70;;;0.70;1.00;;;2.90;100.00;95666.41;5031001;28;20289;-65
2023/03/05 03:05:02;;;;;;;14.83;6.30;;;0.70;1.00;;;2.90;100.00;95660.38;5028389;28;20214;-64
2023/03/05 03:07:29;;;;;;;15.97;6.30;;;0.70;1.00;;;2.85;100.00;95662.81;5032470;28;20272;-64
2023/03/05 03:09:56;;;;;;;17.30;6.67;;;0.80;1.00;;;3.01;100.00;95664.97;5029562;28;20213;-64
2023/03/05 03:12:23;;;;;;;13.73;6.87;;;0.80;1.00;;;3.07;100.00;95662.28;5028405;28;20210;-64
2023/03/05 03:14:51;;;;;;;16.60;7.73;;;0.90;1.00;;;3.02;100.00;95659.47;5032645;28;20216;-64
2023/03/05 03:17:19;;;;;;;19.57;8.07;;;0.90;1.00;;;3.00;100.00;95663.34;5028220;28;20711;-64
2023/03/05 03:19:53;;;;;;;17.07;7.10;;;0.90;1.00;;;2.99;100.00;95653.81;5032749;28;20267;-65
2023/03/05 03:22:20;;;;;;;19.23;7.40;;;0.90;1.00;;;2.97;100.00;95650.59;5034903;28;20215;-64
2023/03/05 03:24:47;;;;;;;16.30;7.13;;;0.90;1.00;;;3.03;100.00;95650.56;5030130;28;20214;-64
2023/03/05 03:27:14;;;;;;;20.97;6.83;;;0.90;1.00;;;3.03;100.00;95642.66;5026372;28;20272;-64
2023/03/05 03:29:40;;;;;;;22.93;7.43;;;0.90;1.00;;;2.98;100.00;95646.94;5028824;28;20213;-64
2023/03/05 03:32:09;;;;;;;17.47;6.97;;;0.90;1.00;;;3.12;100.00;95640.56;5027573;28;20215;-64
2023/03/05 03:34:35;;;;;;;17.20;7.03;;;0.90;1.00;;;3.07;100.00;95648.31;5035795;28;20240;-64
2023/03/05 03:37:02;;;;;;;17.43;7.63;;;0.90;1.00;;;3.03;100.00;95637.38;5025854;28;20211;-64
2023/03/05 03:39:29;;;;;;;17.67;7.13;;;0.90;1.00;;;3.08;100.00;95644.66;5028216;28;20668;-65
2023/03/05 03:41:56;;;;;;;18.33;6.80;;;0.90;1.00;;;3.03;100.00;95642.66;5026951;28;20905;-64
2023/03/05 03:44:23;;;;;;;16.30;7.87;;;0.90;1.00;;;3.13;100.00;95634.28;5024749;28;20216;-64
2023/03/05 03:46:53;;;;;;;19.53;7.93;;;1.00;1.00;;;3.01;100.00;95639.41;5036228;28;20254;-64
2023/03/05 03:49:23;;;;;;;20.03;7.17;;;1.00;1.00;;;3.09;100.00;95633.91;5027843;28;20224;-64
2023/03/05 03:51:53;;;;;;;18.53;8.07;;;1.00;1.00;;;3.08;100.00;95634.91;5030196;28;20203;-64
2023/03/05 03:54:20;;;;;;;13.13;6.77;;;1.00;1.00;;;3.09;100.00;95625.19;5032034;28;20310;-64
2023/03/05 03:56:47;;;;;;;15.77;7.30;;;0.90;1.00;;;2.92;100.00;95627.53;5033385;28;20204;-65
2023/03/05 03:59:14;;;;;;;17.90;6.97;;;0.90;1.00;;;2.89;100.00;95627.94;5026652;28;20218;-64
2023/03/05 04:01:42;;;;;;;16.53;7.03;;;0.90;1.00;;;3.00;100.00;95629.91;5029591;28;20726;-64
2023/03/05 04:04:10;;;;;;;21.33;7.37;;;1.00;1.00;;;2.96;100.00;95628.69;5030363;28;20472;-64
2023/03/05 04:06:39;;;;;;;15.53;6.70;;;0.90;1.00;;;2.96;100.00;95623.44;5031332;28;20280;-64
2023/03/05 04:09:07;;;;;;;15.97;6.40;;;0.90;1.00;;;3.03;100.00;95628.66;5027861;28;20207;-64
2023/03/05 04:11:33;;;;;;;15.27;6.70;;;0.90;1.00;;;3.06;100.00;95618.50;5028764;28;20214;-64
2023/03/05 04:14:00;;;;;;;15.67;7.80;;;0.90;1.00;;;2.91;100.00;95618.03;5028498;28;20268;-64
2023/03/05 04:16:27;;;;;;;17.60;7.80;;;0.90;1.00;;;2.99;100.00;95616.94;5029901;28;20211;-65
2023/03/05 04:18:54;;;;;;;17.87;8.17;;;0.90;1.00;;;3.06;100.00;95622.97;5029069;28;20266;-64
2023/03/05 04:21:21;;;;;;;19.77;7.70;;;0.90;1.00;;;3.02;100.00;95613.88;5026458;28;20691;-64
2023/03/05 04:23:49;;;;;;;18.10;8.00;;;0.90;1.00;;;3.03;100.00;95613.69;5027804;28;20712;-64
2023/03/05 04:26:16;;;;;;;20.80;8.17;;;0.90;1.00;;;3.02;100.00;95622.59;5030077;28;20662;-64
2023/03/05 04:28:43;;;;;;;20.27;7.37;;;0.90;1.00;;;3.08;100.00;95613.84;5028724;28;20558;-64
2023/03/05 04:31:09;;;;;;;17.13;7.93;;;0.90;1.00;;;3.07;100.00;95619.31;5029755;28;20211;-64
2023/03/05 04:33:36;;;;;;;22.43;8.23;;;0.90;1.00;;;2.95;100.00;95608.66;5028511;28;20271;-64
2023/03/05 04:36:03;;;;;;;21.97;8.90;;;1.00;1.00;;;3.05;100.00;95610.84;5029075;28;20657;-64
2023/03/05 04:38:30;;;;;;;17.30;8.17;;;0.90;1.00;;;3.05;100.00;95609.00;5026676;28;20268;-64
2023/03/05 04:40:58;;;;;;;23.03;8.63;;;0.90;1.00;;;3.02;100.00;95601.53;5030211;28;20260;-64
2023/03/05 04:43:25;;;;;;;21.17;8.10;;;0.90;1.00;;;3.02;100.00;95604.16;5028414;28;20219;-64
2023/03/05 04:45:52;;;;;;;25.50;9.37;;;0.90;1.00;;;2.87;100.00;95603.66;5030679;28;20226;-64
2023/03/05 04:48:18;;;;;;;24.00;9.00;;;0.90;1.00;;;2.90;100.00;95595.31;5028121;28;20258;-64
2023/03/05 04:50:45;;;;;;;22.07;9.63;;;0.90;1.00;;;2.89;100.00;95604.25;5032108;28;20629;-64
2023/03/05 04:53:12;;;;;;;24.27;9.97;;;0.90;1.00;;;2.97;100.00;95606.63;5030327;28;20210;-64
2023/03/05 04:55:38;;;;;;;20.70;9.53;;;0.90;1.00;;;2.95;100.00;95597.31;5027030;28;20210;-64
2023/03/05 04:58:07;;;;;;;22.07;8.97;;;0.90;1.00;;;3.01;100.00;95586.72;5022094;28;20221;-64
2023/03/05 05:00:33;;;;;;;21.87;9.30;;;0.90;1.00;;;2.86;100.00;95595.97;5030208;28;20628;-64
2023/03/05 05:03:00;;;;;;;23.73;9.97;;;0.90;1.00;;;2.87;100.00;95593.13;5028553;28;20599;-64
2023/03/05 05:05:29;;;;;;;17.10;8.37;;;0.90;1.00;;;2.98;100.00;95589.81;5028491;28;20219;-64
2023/03/05 05:07:57;;;;;;;20.33;9.17;;;0.90;1.00;;;3.05;100.00;95585.28;5028659;28;20234;-64
2023/03/05 05:10:26;;;;;;;20.07;9.07;;;0.90;1.00;;;3.05;100.00;95582.66;5027957;28;20214;-64
2023/03/05 05:12:53;;;;;;;19.03;8.87;;;0.90;1.00;;;3.00;100.00;95590.38;5031877;28;20242;-64
2023/03/05 05:15:21;;;;;;;22.67;9.87;;;0.90;1.00;;;2.93;100.00;95586.19;5025071;28;20665;-64
2023/03/05 05:17:48;;;;;;;20.33;9.23;;;0.90;1.00;;;2.87;100.00;95587.03;5029127;28;20212;-64
2023/03/05 05:20:16;;;;;;;22.07;9.17;;;0.90;1.00;;;2.89;100.00;95590.28;5027909;28;20272;-64
2023/03/05 05:22:44;;;;;;;24.80;9.33;;;0.90;1.00;;;2.95;100.00;95590.22;5029250;28;20293;-64
2023/03/05 05:25:11;;;;;;;21.43;9.03;;;0.90;1.00;;;2.86;100.00;95580.97;5028062;28;20245;-64
2023/03/05 05:27:39;;;;;;;25.13;9.53;;;0.90;1.00;;;2.76;100.00;95582.44;5028204;28;20287;-64
2023/03/05 05:30:08;;;;;;;22.70;9.57;;;0.90;1.00;;;2.81;100.00;95588.72;5024408;28;20206;-64
2023/03/05 05:32:36;;;;;;;23.33;9.97;;;0.90;1.00;;;2.90;100.00;95586.63;5028552;28;20210;-64
2023/03/05 05:35:03;;;;;;;24.20;9.67;;;0.90;1.00;;;2.99;100.00;95591.41;5022776;28;20269;-64
2023/03/05 05:37:30;;;;;;;24.00;9.60;;;0.90;1.00;;;2.96;100.00;95586.56;5027501;28;20267;-64
2023/03/05 05:39:57;;;;;;;22.80;9.63;;;0.90;1.00;;;2.87;100.00;95587.84;5021985;28;20256;-64
2023/03/05 05:42:25;;;;;;;27.17;9.57;;;0.90;1.00;;;2.77;100.00;95584.88;5026272;28;21665;-64
2023/03/05 05:44:52;;;;;;;17.43;9.13;;;0.90;1.00;;;2.89;100.00;95585.81;5027349;28;20663;-64
2023/03/05 05:47:19;;;;;;;29.40;10.13;;;0.90;1.00;;;2.88;100.00;95593.91;5029353;28;20272;-64
2023/03/05 05:49:47;;;;;;;23.37;9.27;;;0.90;1.00;;;2.83;100.00;95589.28;5024908;28;20703;-64
2023/03/05 05:52:14;;;;;;;22.40;8.93;;;0.90;1.00;;;2.93;100.00;95588.81;5026483;28;20268;-64
2023/03/05 05:54:41;;;;;;;20.80;8.97;;;0.90;1.00;;;2.91;100.00;95596.94;5026639;28;20267;-64
2023/03/05 05:57:08;;;;;;;20.50;8.63;;;0.90;1.00;;;2.93;100.00;95594.91;5024165;28;20211;-64
2023/03/05 05:59:36;;;;;;;23.27;9.27;;;0.90;1.00;;;2.99;100.00;95588.78;5026574;28;20256;-64
2023/03/05 06:02:03;;;;;;;23.03;8.90;;;0.90;1.00;;;2.98;100.00;95583.72;5029091;28;21047;-64
2023/03/05 06:04:29;;;;;;;18.40;9.20;;;0.90;1.00;;;2.97;100.00;95588.19;5026204;28;20211;-64
2023/03/05 06:06:58;;;;;;;22.63;8.93;;;0.90;1.00;;;2.95;100.00;95576.25;5027014;28;20265;-64
2023/03/05 06:09:25;;;;;;;19.13;9.00;;;0.80;1.00;;;2.92;100.00;95580.13;5027109;28;20210;-64
2023/03/05 06:11:52;;;;;;;21.73;9.03;;;0.90;1.00;;;3.01;100.00;95581.47;5029201;28;20264;-65
2023/03/05 06:14:19;;;;;;;21.27;8.90;;;0.90;1.00;;;2.89;100.00;95585.00;5027757;28;20666;-64
2023/03/05 06:16:46;;;;;;;17.63;8.20;;;0.90;1.00;;;2.90;100.00;95581.34;5026469;28;20202;-64
2023/03/05 06:19:13;;;;;;;19.10;8.60;;;0.90;1.00;;;2.96;100.00;95580.50;5027990;28;20250;-64
2023/03/05 06:21:41;;;;;;;20.50;8.33;;;0.90;1.00;;;2.97;100.00;95580.28;5025031;28;20206;-64
2023/03/05 06:24:11;;;;;;;16.10;8.70;;;0.90;1.00;;;2.99;100.00;95577.41;5026713;28;20230;-64
2023/03/05 06:26:38;;;;;;;20.40;8.30;;;0.80;1.00;;;2.95;100.00;95584.94;5028574;28;20305;-65
2023/03/05 06:29:04;;;;;;;19.00;9.03;;;0.80;1.00;;;2.96;100.00;95577.88;5028341;28;20215;-64
2023/03/05 06:31:31;;;;;;;19.00;7.97;;;0.80;1.00;;;2.96;100.00;95577.88;5033708;28;20648;-64
2023/03/05 06:34:01;;;;;;;19.40;8.43;;;0.80;1.00;;;2.95;100.00;95578.88;5034807;28;20206;-64
2023/03/05 06:36:28;;;;;;;18.60;8.60;;;0.80;1.00;;;2.90;100.00;95574.25;5034523;28;20242;-64
2023/03/05 06:38:56;;;;;;;24.33;8.77;;;0.90;1.00;;;3.00;100.00;95582.47;5029921;28;20207;-64
2023/03/05 06:41:27;;;;;;;20.10;8.73;;;0.90;1.00;;;2.99;100.00;95583.50;5030083;28;20273;-64
2023/03/05 06:43:55;;;;;;;18.40;8.60;;;0.90;1.00;;;3.00;100.00;95582.47;5029365;28;20211;-64
2023/03/05 06:46:25;;;;;;;18.80;9.63;;;1.00;1.00;;;3.08;100.00;95576.97;5042366;28;20690;-64
2023/03/05 06:48:55;;;;;;;17.27;8.77;;;1.00;1.00;;;3.14;100.00;95573.47;5030154;28;20241;-65
2023/03/05 06:51:24;;;;;;;17.87;7.77;;;1.00;1.00;;;3.20;100.00;95567.34;5033224;28;20198;-64
2023/03/05 06:53:51;;;;;;;18.97;8.87;;;1.00;1.00;;;3.26;100.00;95569.09;5034238;28;20718;-64
2023/03/05 06:56:20;;;;;;;18.40;9.43;;;1.00;1.00;;;3.27;100.00;95565.47;5032298;28;20218;-64
2023/03/05 06:58:51;;;;;;;20.37;8.13;;;1.00;1.00;;;3.35;100.00;95559.13;5030434;28;20519;-64
2023/03/05 07:01:19;;;;;;;18.80;8.57;;;1.00;1.00;;;3.18;100.00;95560.66;5026799;28;20245;-64
2023/03/05 07:03:49;;;;;;;18.20;8.40;;;1.00;1.00;;;3.21;100.00;95563.69;5027666;28;20215;-64
2023/03/05 07:06:17;;;;;;;15.77;7.63;;;1.00;1.00;;;3.30;100.00;95558.97;5026811;28;20211;-65
2023/03/05 07:08:44;;;;;;;20.03;8.67;;;1.10;1.00;;;3.28;100.00;95566.28;5033887;28;20234;-64
2023/03/05 07:11:13;;;;;;;17.10;9.00;;;1.00;1.00;;;3.25;100.00;95567.50;5030279;28;20270;-64
2023/03/05 07:13:40;;;;;;;18.97;8.93;;;1.00;1.00;;;3.39;100.00;95555.84;5033077;28;20256;-64
2023/03/05 07:16:11;;;;;;;17.70;8.10;;;1.10;1.00;;;3.55;100.00;95565.81;5028314;28;20214;-64
2023/03/05 07:18:37;;;;;;;16.57;8.33;;;1.10;1.00;;;3.58;100.00;95562.78;5030029;28;20246;-64
2023/03/05 07:21:05;;;;;;;16.90;8.47;;;1.20;1.00;;;3.61;100.00;95558.88;5032254;28;20241;-64
2023/03/05 07:23:32;;;;;;;19.30;8.37;;;1.20;1.00;;;3.70;100.00;95566.28;5029918;28;20750;-65
2023/03/05 07:26:02;;;;;;;17.90;8.53;;;1.20;1.00;;;3.63;100.00;95564.75;5028531;28;20268;-64
2023/03/05 07:28:29;;;;;;;17.20;7.23;;;1.30;1.00;;;3.72;100.00;95561.59;5031921;28;20227;-64
2023/03/05 07:30:57;;;;;;;15.93;8.00;;;1.30;1.00;;;3.75;100.00;95553.25;5028725;28;20947;-65
2023/03/05 07:33:26;;;;;;;18.60;8.37;;;1.30;1.00;;;3.82;100.00;95553.19;5029155;28;20301;-64
2023/03/05 07:35:52;;;;;;;15.43;8.17;;;1.30;1.00;;;3.92;100.00;95554.28;5027965;28;20268;-64
2023/03/05 07:38:19;;;;;;;16.03;8.00;;;1.40;1.00;;;3.88;100.00;95552.31;5032136;28;20253;-64
2023/03/05 07:40:46;;;;;;;17.80;8.70;;;1.40;1.00;;;3.92;100.00;95548.22;5022105;28;20594;-64
2023/03/05 07:43:13;;;;;;;21.00;9.10;;;1.40;1.00;;;3.82;100.00;95547.94;5029601;28;20261;-64
2023/03/05 07:45:40;;;;;;;18.37;8.40;;;1.40;1.00;;;3.91;100.00;95547.41;5026428;28;20211;-64
2023/03/05 07:48:08;;;;;;;15.83;7.70;;;1.40;1.00;;;3.89;100.00;95553.94;5028695;28;20230;-64
2023/03/05 07:50:36;;;;;;;20.13;7.90;;;1.40;1.00;;;3.98;100.00;95545.53;5027362;28;20208;-64
2023/03/05 07:53:03;;;;;;;20.90;8.17;;;1.50;1.00;;;4.01;100.00;95547.69;5029848;28;20274;-64
2023/03/05 07:55:30;;;;;;;16.60;8.53;;;1.50;1.00;;;4.14;100.00;95546.75;5031314;28;20261;-64
2023/03/05 07:57:57;;;;;;;17.17;8.47;;;1.60;1.00;;;4.13;100.00;95547.78;5028908;28;20228;-64
2023/03/05 08:00:23;;;;;;;16.67;8.87;;;1.60;1.00;;;4.11;100.00;95549.84;5034213;28;20286;-64
2023/03/05 08:02:50;;;;;;;21.77;10.37;;;1.70;1.00;;;4.16;100.00;95542.84;5026914;28;20273;-64
2023/03/05 08:05:17;;;;;;;17.60;8.63;;;1.70;1.00;;;4.25;100.00;95549.47;5030959;28;20950;-64
2023/03/05 08:07:45;;;;;;;19.67;9.93;;;1.80;1.00;;;4.29;100.00;95545.34;5029130;28;20231;-64
2023/03/05 08:10:12;;;;;;;18.33;9.97;;;1.80;1.00;;;4.46;100.00;95541.06;5026624;28;20231;-64
2023/03/05 08:12:39;;;;;;;23.47;10.77;;;1.80;1.00;;;4.53;100.00;95541.78;5029179;28;20242;-64
2023/03/05 08:15:07;;;;;;;28.33;15.10;;;1.90;1.00;;;4.38;100.00;95540.56;5028725;28;20216;-64
2023/03/05 08:17:34;;;;;;;28.43;12.90;;;1.90;1.00;;;4.61;100.00;95543.28;5032701;28;20275;-64
2023/03/05 08:20:04;;;;;;;24.90;13.13;;;2.00;1.00;;;4.72;100.00;95539.91;5032445;28;20215;-64
2023/03/05 08:22:32;;;;;;;26.90;12.13;;;2.00;1.00;;;4.76;100.00;95541.88;5027239;28;20245;-64
2023/03/05 08:25:01;;;;;;;22.87;10.63;;;2.10;1.00;;;4.81;100.00;95539.38;5027567;28;20599;-64
2023/03/05 08:27:28;;;;;;;21.37;11.20;;;2.20;1.00;;;4.91;100.00;95544.09;5027739;28;21769;-64
2023/03/05 08:29:55;;;;;;;20.70;9.80;;;2.30;1.00;;;4.97;100.00;95537.94;5028923;28;20214;-64
2023/03/05 08:32:22;;;;;;;19.33;10.03;;;2.30;1.00;;;5.04;100.00;95533.34;5025173;28;20229;-64
2023/03/05 08:34:49;;;;;;;23.70;10.77;;;2.40;1.00;;;5.03;100.00;95534.38;5028707;28;20300;-64
2023/03/05 08:37:16;;;;;;;17.07;8.37;;;2.50;1.00;;;4.78;100.00;95529.22;5027061;28;20283;-64
2023/03/05 08:39:43;;;;;;;17.57;8.50;;;2.50;1.00;;;4.94;100.00;95522.50;5029840;28;20655;-64
2023/03/05 08:42:11;;;;;;;22.73;9.77;;;2.40;1.00;;;5.24;100.00;95528.56;5028507;28;20670;-64
2023/03/05 08:44:37;;;;;;;21.47;11.03;;;2.60;1.00;;;5.21;100.00;95521.06;5029719;28;20704;-64
2023/03/05 08:47:04;;;;;;;16.83;9.13;;;2.70;1.00;;;4.92;100.00;95525.38;5022405;28;20212;-64
2023/03/05 08:49:31;;;;;;;16.57;8.10;;;2.70;1.00;;;4.77;100.00;95521.56;5033606;28;20261;-64
2023/03/05 08:51:58;;;;;;;17.73;8.50;;;2.60;1.00;;;5.00;100.00;95522.41;5021957;28;20207;-64
2023/03/05 08:54:25;;;;;;;18.83;9.17;;;2.70;1.00;;;5.21;100.00;95515.78;5034659;28;20213;-64
2023/03/05 08:56:51;;;;;;;19.17;9.77;;;2.70;1.00;;;5.44;100.00;95513.16;5024807;28;20221;-64
2023/03/05 08:59:19;;;;;;;18.83;9.83;;;2.90;1.00;;;5.55;100.00;95517.66;5031705;28;20701;-64
2023/03/05 09:01:46;;;;;;;23.60;11.43;;;2.90;1.00;;;5.52;100.00;95513.63;5024619;28;20212;-64
2023/03/05 09:04:14;;;;;;;19.33;8.97;;;3.00;1.00;;;5.66;100.00;95507.06;5031678;28;20278;-64
2023/03/05 09:06:41;;;;;;;18.33;9.30;;;3.10;1.00;;;5.84;100.00;95508.81;5024737;28;20309;-64
2023/03/05 09:09:08;;;;;;;18.67;10.93;;;3.20;1.00;;;5.91;100.00;95507.66;5027641;28;20294;-64
2023/03/05 09:11:36;;;;;;;17.70;9.53;;;3.30;1.00;;;5.85;100.00;95507.75;5027943;28;20214;-64
2023/03/05 09:14:03;;;;;;;22.00;10.70;;;3.20;1.00;;;5.90;100.00;95506.00;5025871;28;21012;-64
2023/03/05 09:16:31;;;;;;;20.33;9.30;;;3.30;1.00;;;5.77;100.00;95506.25;5025336;28;20202;-64
2023/03/05 09:18:58;;;;;;;21.33;10.57;;;3.30;1.00;;;5.99;100.00;95504.63;5024655;28;20208;-64
2023/03/05 09:21:25;;;;;;;21.23;10.10;;;3.40;1.00;;;5.87;100.00;95506.50;5027086;28;20211;-64
2023/03/05 09:23:58;;;;;;;18.40;9.67;;;3.40;1.00;;;5.90;100.00;95506.00;5031383;28;20234;-64
2023/03/05 09:26:25;;;;;;;18.97;9.47;;;3.40;1.00;;;5.97;100.00;95504.06;5028979;28;20707;-65
2023/03/05 09:28:52;;;;;;;16.57;9.03;;;3.40;1.00;;;5.97;100.00;95503.25;5031666;28;20700;-64
2023/03/05 09:31:19;;;;;;;17.03;8.57;;;3.40;1.00;;;5.41;100.00;95498.56;5029543;28;20210;-64
2023/03/05 09:33:47;;;;;;;16.33;8.00;;;3.20;1.00;;;5.50;100.00;95505.13;5018084;28;20299;-64
2023/03/05 09:36:20;;;;;;;16.67;8.63;;;3.20;1.00;;;5.30;100.00;95495.91;5028557;28;20221;-64
2023/03/05 09:38:47;;;;;;;15.33;7.70;;;3.10;1.00;;;5.22;100.00;95493.59;5030725;28;20735;-65
2023/03/05 09:41:24;;;;;;;14.17;8.00;;;3.00;1.00;;;5.41;100.00;95500.38;5025876;28;20672;-64
2023/03/05 09:44:02;;;;;;;15.33;7.87;;;3.10;1.00;;;5.23;100.00;95489.94;5022200;28;20332;-64
2023/03/05 09:46:48;;;;;;;16.93;8.20;;;3.00;1.00;;;5.27;100.00;95493.69;5024888;28;20207;-64
2023/03/05 09:49:21;;;;;;;17.33;8.50;;;3.00;1.00;;;5.31;100.00;95487.75;5028491;28;20698;-64
2023/03/05 09:51:55;;;;;;;16.87;8.80;;;3.10;1.00;;;5.37;100.00;95486.81;5029500;28;20209;-65
2023/03/05 09:54:30;;;;;;;14.77;8.07;;;3.10;1.00;;;5.24;100.00;95487.03;5030186;28;20220;-65
2023/03/05 09:57:03;;;;;;;16.47;8.07;;;3.10;1.00;;;5.34;100.00;95487.28;5026669;28;20897;-64
2023/03/05 09:59:39;;;;;;;15.83;8.57;;;3.10;1.00;;;5.32;100.00;95473.50;5029271;28;20683;-65
2023/03/05 10:02:18;;;;;;;15.10;8.03;;;3.10;1.00;;;5.56;100.00;95477.75;5023338;28;20272;-64
2023/03/05 10:04:52;;;;;;;18.13;8.40;;;3.20;1.00;;;5.43;100.00;95474.53;5027742;28;20297;-65
2023/03/05 10:07:26;;;;;;;17.60;9.00;;;3.30;1.00;;;5.71;100.00;95478.06;5031691;28;20660;-65
2023/03/05 10:09:59;;;;;;;11.67;7.67;;;3.40;1.00;;;5.76;100.00;95470.25;5028311;28;20723;-65
2023/03/05 10:12:37;;;;;;;16.30;9.03;;;3.40;1.00;;;6.02;100.00;95480.34;5028431;28;20214;-64
2023/03/05 10:15:14;;;;;;;14.47;8.53;;;3.50;1.00;;;5.74;100.00;95480.25;5030056;28;20210;-65
2023/03/05 10:17:59;;;;;;;14.33;8.17;;;3.50;1.00;;;5.91;100.00;95480.38;5034683;28;20691;-69
2023/03/05 10:20:49;;;;;;;14.83;7.80;;;3.50;1.00;;;6.05;100.00;95485.16;5034755;28;20206;-69
2023/03/05 10:23:49;;;;;;;14.60;8.37;;;3.70;1.00;;;5.92;100.00;95479.31;5032911;28;20285;-69
2023/03/05 10:26:30;;;;;;;14.63;8.17;;;3.70;1.00;;;6.04;100.00;95472.97;5025803;28;20248;-65
2023/03/05 10:29:16;;;;;;;14.10;7.70;;;3.60;1.00;;;6.33;100.00;95471.16;5025601;28;20226;-64
2023/03/05 10:32:10;;;;;;;13.73;7.27;;;3.70;1.00;;;6.10;100.00;95471.25;5028696;28;20219;-64